Pine Castle, Florida
Current Conditions -  °F | °C
As of 5:53 PM on Saturday 22 Nov 2014 (Local Time) from KORL Reporting Station
Overcast Overcast  
Wind Chill: 69°   Ceiling: 3300
Heat Index: 69°   Visibility: 10mi
Dew Point: 68°   Wind: 10mph
Humidity: 96%   Direction: 80°E
Pressure: 30.15"   Gusts: NA
Location:  28.4877°N, 81.409°W
Report Text: KORL 222253Z 08009KT 10SM SCT023 BKN033 OVC043 21/20 A3015 RMK AO2 SLP213 P0001 T02060200
Loading
Personal Weather Stations






























Interactive Weather Map New forecast layout! Learn more

10-Day Weather Forecast

Advertisements
Track Severe Weather on mobile